Time;durP1;ratioP1;P1;durP2;ratioP2;P2;SDS_P1;SDS_P2;PMS_P1;PMS_P2;Temp;Humidity;BMP_temperature;BMP_pressure;BME280_temperature;BME280_humidity;BME280_pressure;Samples;Min_cycle;Max_cycle;Signal;HPM_P1;HPM_P2
2023/10/10 00:00:54;;;;;;;11.33;5.20;;;;;;;16.15;64.19;99681.31;7381189;39;20233;31
2023/10/10 00:06:13;;;;;;;9.07;5.10;;;;;;;16.08;64.68;99683.13;7316698;39;20270;31
2023/10/10 00:11:31;;;;;;;12.35;5.55;;;;;;;16.17;64.31;99682.00;7072243;40;20339;31
2023/10/10 00:17:08;;;;;;;10.03;5.10;;;;;;;16.19;63.85;99690.78;7296648;39;20445;31
2023/10/10 00:22:35;;;;;;;11.25;5.20;;;;;;;15.98;65.09;99703.47;7320083;39;20244;31
2023/10/10 00:27:48;;;;;;;8.35;5.10;;;;;;;15.96;64.63;99700.97;7339218;39;20355;31
2023/10/10 00:33:24;;;;;;;8.00;5.60;;;;;;;15.93;66.49;99689.63;7365204;39;21498;31
2023/10/10 00:39:22;;;;;;;10.97;5.27;;;;;;;16.08;65.02;99683.13;7364372;39;20377;31
2023/10/10 00:44:38;;;;;;;7.07;5.00;;;;;;;16.20;64.96;99686.19;7369477;39;20302;31
2023/10/10 00:50:18;;;;;;;11.00;5.80;;;;;;;16.02;65.72;99674.88;7384768;39;20305;31
2023/10/10 00:55:56;;;;;;;10.65;5.00;;;;;;;15.93;65.38;99665.97;7334240;39;20249;31
2023/10/10 01:01:31;;;;;;;9.83;4.93;;;;;;;16.09;64.09;99670.38;7311048;39;20267;31
2023/10/10 01:07:08;;;;;;;8.00;5.05;;;;;;;16.14;64.64;99659.78;7279443;40;20259;31
2023/10/10 01:12:46;;;;;;;8.13;4.80;;;;;;;16.12;64.75;99659.13;7303576;39;20255;31
2023/10/10 01:18:24;;;;;;;7.57;5.00;;;;;;;16.23;63.92;99653.19;7219484;40;20257;31
2023/10/10 01:24:00;;;;;;;9.90;4.70;;;;;;;16.43;63.64;99639.78;7257048;39;20238;31
2023/10/10 01:29:40;;;;;;;12.73;4.90;;;;;;;16.60;62.61;99641.25;7247647;39;20276;31
2023/10/10 01:40:16;;;;;;;9.20;4.55;;;;;;;16.54;63.92;99640.13;7239528;40;20265;31
2023/10/10 01:50:55;;;;;;;8.20;5.10;;;;;;;16.42;64.00;99625.34;7355515;39;20300;31
2023/10/10 01:56:32;;;;;;;8.57;4.80;;;;;;;16.46;63.42;99620.34;7378035;39;20274;31
2023/10/10 02:01:55;;;;;;;9.97;5.67;;;;;;;16.61;63.68;99619.31;7357419;39;20257;31
2023/10/10 02:07:22;;;;;;;7.73;5.13;;;;;;;16.54;63.94;99623.78;7399990;39;20260;31
2023/10/10 02:12:53;;;;;;;11.40;5.30;;;;;;;16.47;64.51;99622.88;7364850;39;20283;31
2023/10/10 02:23:33;;;;;;;9.73;5.32;;;;;;;16.38;64.32;99620.47;7378628;39;20346;31
2023/10/10 02:29:33;;;;;;;8.60;5.30;;;;;;;16.26;64.39;99622.03;7350886;39;20340;31
2023/10/10 02:35:10;;;;;;;10.70;5.45;;;;;;;16.09;64.48;99626.87;7378363;39;20340;31
2023/10/10 02:40:17;;;;;;;10.57;4.80;;;;;;;16.06;64.99;99625.34;7318975;39;20344;31
2023/10/10 02:45:50;;;;;;;8.10;5.37;;;;;;;15.81;65.73;99631.31;7363364;39;20297;31
2023/10/10 02:51:27;;;;;;;8.90;5.70;;;;;;;15.51;67.24;99620.47;7300779;39;20243;31
2023/10/10 02:56:45;;;;;;;9.50;5.53;;;;;;;15.33;66.89;99612.66;7263117;40;20366;31
2023/10/10 03:03:02;;;;;;;8.10;5.20;;;;;;;15.47;67.22;99621.00;7309332;39;20269;31
2023/10/10 03:08:37;;;;;;;10.17;5.10;;;;;;;15.52;67.76;99622.19;7341755;39;20249;31
2023/10/10 03:14:00;;;;;;;10.20;4.70;;;;;;;15.55;67.06;99620.94;7311484;39;20271;31
2023/10/10 03:19:37;;;;;;;8.50;4.73;;;;;;;15.41;66.75;99621.75;7342118;39;21392;31
2023/10/10 03:25:09;;;;;;;10.25;5.10;;;;;;;15.29;67.44;99622.22;7356870;39;20235;31
2023/10/10 03:30:50;;;;;;;8.35;5.00;;;;;;;15.33;67.13;99628.13;7350578;39;20359;31
2023/10/10 03:36:23;;;;;;;7.87;4.77;;;;;;;15.24;67.53;99626.53;7340490;39;20240;31
2023/10/10 05:26:50;;;;;;;7.57;5.23;;;;;;;15.06;69.54;99620.59;7457106;39;20238;31
2023/10/10 05:32:30;;;;;;;8.15;4.80;;;;;;;14.86;69.85;99636.56;7323478;39;20266;31
2023/10/10 05:38:01;;;;;;;8.87;4.90;;;;;;;14.92;70.20;99635.00;7318143;39;20437;31
2023/10/10 05:43:26;;;;;;;8.95;4.75;;;;;;;14.86;68.93;99642.00;7322763;39;20345;31
2023/10/10 05:48:42;;;;;;;7.73;4.87;;;;;;;14.77;70.00;99645.81;7304734;39;20410;31
2023/10/10 05:54:17;;;;;;;11.77;5.37;;;;;;;14.78;70.12;99639.38;7332126;39;20242;31
2023/10/10 05:59:52;;;;;;;10.83;4.90;;;;;;;14.67;70.32;99643.34;7333936;39;20253;31
2023/10/10 06:05:29;;;;;;;10.90;5.20;;;;;;;14.59;71.21;99648.84;7287706;40;20353;31
2023/10/10 06:11:03;;;;;;;9.10;4.85;;;;;;;14.40;71.05;99657.44;7300352;40;20364;31
2023/10/10 06:21:29;;;;;;;9.70;5.00;;;;;;;14.44;71.38;99669.62;7343369;39;20383;31
2023/10/10 06:27:08;;;;;;;12.50;5.10;;;;;;;14.53;70.94;99662.25;7357847;39;20336;31
2023/10/10 06:32:40;;;;;;;8.95;5.00;;;;;;;14.62;71.31;99666.59;7332974;39;20239;31
2023/10/10 06:38:15;;;;;;;10.63;5.20;;;;;;;14.63;70.84;99673.72;7427038;39;20328;31
2023/10/10 06:43:51;;;;;;;8.60;5.05;;;;;;;14.75;71.48;99670.41;7346198;39;20330;31
2023/10/10 06:49:43;;;;;;;8.80;5.00;;;;;;;14.89;71.41;99676.91;7310461;39;20388;31
2023/10/10 06:55:10;;;;;;;13.33;5.77;;;;;;;15.07;70.38;99676.59;7323679;39;20296;31
2023/10/10 07:00:44;;;;;;;9.03;5.10;;;;;;;15.21;71.39;99673.06;7297003;39;20354;31
2023/10/10 07:11:09;;;;;;;9.87;5.83;;;;;;;15.54;70.33;99673.59;7302720;39;20575;31
2023/10/10 07:16:43;;;;;;;10.10;5.20;;;;;;;15.63;71.66;99672.47;7320906;39;20479;31
2023/10/10 07:27:30;;;;;;;12.07;5.45;;;;;;;15.91;70.75;99678.09;7359457;39;20423;31
2023/10/10 07:33:00;;;;;;;8.70;5.40;;;;;;;16.07;70.47;99670.56;7135614;39;21319;31
2023/10/10 07:38:18;;;;;;;9.80;5.23;;;;;;;16.28;70.05;99682.53;7324058;39;20379;31
2023/10/10 07:43:39;;;;;;;9.20;4.70;;;;;;;16.47;68.84;99690.91;7304950;39;20313;31
2023/10/10 07:49:16;;;;;;;10.60;4.87;;;;;;;16.60;68.75;99685.66;7297442;40;20310;31
2023/10/10 07:54:53;;;;;;;9.90;5.15;;;;;;;16.82;69.08;99691.09;7283792;39;20342;31
2023/10/10 08:00:35;;;;;;;13.20;5.57;;;;;;;16.98;69.09;99686.22;7308421;39;20339;31
2023/10/10 08:06:01;;;;;;;9.90;4.90;;;;;;;17.17;67.93;99683.88;7257267;40;20263;31
2023/10/10 08:11:39;;;;;;;13.83;5.13;;;;;;;17.27;68.17;99674.34;7308374;39;20260;31
2023/10/10 08:17:04;;;;;;;12.05;5.50;;;;;;;17.39;67.55;99677.34;7308648;39;20233;31
2023/10/10 08:22:34;;;;;;;9.50;5.00;;;;;;;17.53;67.69;99679.97;7272542;39;20246;31
2023/10/10 08:27:55;;;;;;;9.33;5.07;;;;;;;17.70;66.91;99675.06;7352322;39;20350;31
2023/10/10 08:33:32;;;;;;;12.17;5.03;;;;;;;17.84;66.12;99674.09;7323714;39;20236;31
2023/10/10 08:44:07;;;;;;;9.50;5.10;;;;;;;18.11;64.94;99672.34;7357099;39;20381;31
2023/10/10 08:49:42;;;;;;;10.30;4.50;;;;;;;18.26;64.15;99674.91;7306150;39;20398;31
2023/10/10 08:55:18;;;;;;;10.63;4.87;;;;;;;18.40;63.49;99676.66;7315838;39;20254;31
2023/10/10 09:00:53;;;;;;;8.33;4.37;;;;;;;18.52;62.36;99675.00;7339478;39;20337;31
2023/10/10 09:06:32;;;;;;;10.35;4.45;;;;;;;18.61;61.55;99672.94;7310876;39;20260;31
2023/10/10 09:12:12;;;;;;;10.80;4.45;;;;;;;18.75;61.64;99674.66;7330887;39;20229;31
2023/10/10 09:17:41;;;;;;;10.10;4.70;;;;;;;18.91;61.53;99683.28;7327358;39;20269;31
2023/10/10 09:28:20;;;;;;;12.05;5.20;;;;;;;19.26;60.97;99680.41;7319537;39;20292;31
2023/10/10 09:39:12;;;;;;;7.70;4.50;;;;;;;19.49;59.98;99685.44;7346930;39;20445;31
2023/10/10 09:45:16;;;;;;;10.60;4.85;;;;;;;19.63;60.36;99679.75;7338169;39;20266;31
2023/10/10 09:50:45;;;;;;;10.90;5.00;;;;;;;19.76;59.33;99666.03;7270784;39;20264;31
2023/10/10 09:56:14;;;;;;;10.70;4.60;;;;;;;19.96;58.53;99676.09;7250920;39;20257;31
2023/10/10 10:01:59;;;;;;;8.30;4.10;;;;;;;20.13;58.93;99680.03;7321284;39;20236;31
2023/10/10 10:07:24;;;;;;;9.83;5.00;;;;;;;20.24;57.79;99682.06;7252972;40;21298;31
2023/10/10 10:13:13;;;;;;;9.60;4.40;;;;;;;20.40;57.73;99684.38;7209859;40;21374;31
2023/10/10 10:18:46;;;;;;;10.60;5.10;;;;;;;20.54;57.49;99685.12;7219592;40;20234;31
2023/10/10 10:24:26;;;;;;;11.50;5.25;;;;;;;20.64;57.53;99680.84;7250883;40;20323;31
2023/10/10 10:29:55;;;;;;;10.43;4.97;;;;;;;20.69;56.53;99681.03;7295423;39;20310;31
2023/10/10 10:35:37;;;;;;;11.60;5.20;;;;;;;20.83;55.87;99670.84;7308566;39;20319;31
2023/10/10 10:41:17;;;;;;;14.00;5.75;;;;;;;20.97;56.38;99672.44;7319163;39;20233;31
2023/10/10 10:46:57;;;;;;;8.50;5.43;;;;;;;21.06;55.35;99670.25;7305840;39;20251;31
2023/10/10 10:52:43;;;;;;;11.30;5.60;;;;;;;21.29;54.68;99664.16;7371897;39;20274;31
2023/10/10 10:58:20;;;;;;;11.70;5.50;;;;;;;21.43;53.43;99657.50;7371728;39;20251;31
2023/10/10 11:03:46;;;;;;;12.13;5.45;;;;;;;21.45;53.71;99653.50;7278103;39;20241;31
2023/10/10 11:09:23;;;;;;;9.05;5.15;;;;;;;21.60;53.36;99655.84;7249680;39;20346;31
2023/10/10 11:14:45;;;;;;;10.95;5.55;;;;;;;21.71;55.36;99646.06;7278680;39;20280;31
2023/10/10 11:20:29;;;;;;;9.35;5.15;;;;;;;21.79;55.92;99643.84;7355722;39;20302;31
2023/10/10 11:26:07;;;;;;;11.20;5.20;;;;;;;21.84;56.03;99645.91;7367917;39;21462;31
2023/10/10 11:31:47;;;;;;;7.70;5.28;;;;;;;21.97;56.65;99632.91;7318357;39;20369;31
2023/10/10 11:37:31;;;;;;;11.75;5.65;;;;;;;22.14;56.89;99635.00;7237385;40;20249;31
2023/10/10 11:43:03;;;;;;;13.85;5.30;;;;;;;22.24;56.67;99627.06;7232401;40;20394;31
2023/10/10 11:48:26;;;;;;;12.70;5.25;;;;;;;22.30;56.80;99621.47;7314770;39;20411;31
2023/10/10 11:53:59;;;;;;;11.55;6.12;;;;;;;22.42;50.94;99619.59;7339563;39;20418;31
2023/10/10 11:59:35;;;;;;;10.48;5.75;;;;;;;22.47;49.91;99613.41;7322180;39;20274;31
2023/10/10 12:10:17;;;;;;;12.57;6.28;;;;;;;22.65;48.37;99598.78;7328412;39;20270;31
2023/10/10 12:15:38;;;;;;;14.02;6.35;;;;;;;22.75;48.62;99594.44;7303502;39;20346;31
2023/10/10 12:21:13;;;;;;;10.38;6.10;;;;;;;22.82;48.69;99595.16;7335848;39;20372;31
2023/10/10 12:26:53;;;;;;;11.50;6.15;;;;;;;22.98;48.05;99587.28;7285449;39;20267;31
2023/10/10 12:32:26;;;;;;;8.80;5.25;;;;;;;23.04;47.04;99594.56;7255594;39;20237;31
2023/10/10 12:38:01;;;;;;;11.05;5.00;;;;;;;23.14;47.66;99579.16;7269622;39;20245;31
2023/10/10 12:43:37;;;;;;;8.08;5.16;;;;;;;23.28;47.27;99580.63;7239796;40;20253;31
2023/10/10 12:49:13;;;;;;;9.83;5.37;;;;;;;23.37;46.76;99570.09;7414053;39;20259;31
2023/10/10 12:54:35;;;;;;;10.50;5.50;;;;;;;23.50;47.92;99575.38;7270466;39;20365;31
2023/10/10 13:00:24;;;;;;;9.00;4.90;;;;;;;23.66;46.59;99563.59;7346232;39;20263;31
2023/10/10 13:05:59;;;;;;;10.45;5.70;;;;;;;23.87;47.27;99559.34;7319425;39;20436;31
2023/10/10 13:11:43;;;;;;;9.30;5.38;;;;;;;23.92;47.63;99550.34;7313579;39;20376;31
2023/10/10 13:17:29;;;;;;;9.10;4.80;;;;;;;23.96;47.10;99546.88;7277492;40;20327;31
2023/10/10 13:22:50;;;;;;;9.98;5.14;;;;;;;24.05;46.39;99550.91;7324868;39;20423;31
2023/10/10 13:28:17;;;;;;;10.18;4.80;;;;;;;24.17;46.91;99539.91;7320426;39;20385;31
2023/10/10 13:33:46;;;;;;;7.40;4.84;;;;;;;24.17;46.56;99540.75;7326715;39;20240;31
2023/10/10 13:39:07;;;;;;;10.47;5.05;;;;;;;24.17;48.00;99537.16;7385949;39;20254;31
2023/10/10 13:44:42;;;;;;;10.15;5.37;;;;;;;24.12;47.22;99540.59;7436330;39;20238;31
2023/10/10 13:50:31;;;;;;;9.77;4.90;;;;;;;24.07;47.08;99536.91;7353220;39;20256;31
2023/10/10 13:56:01;;;;;;;9.60;4.78;;;;;;;24.02;46.11;99537.63;7154940;39;21285;31
2023/10/10 14:01:29;;;;;;;7.95;4.80;;;;;;;24.05;45.29;99536.31;7298525;39;20245;31
2023/10/10 14:07:05;;;;;;;8.57;4.70;;;;;;;24.04;44.49;99538.25;7352450;39;20363;31
2023/10/10 14:12:44;;;;;;;12.46;4.94;;;;;;;24.07;44.65;99529.47;7328367;39;20337;31
2023/10/10 14:17:57;;;;;;;9.13;4.70;;;;;;;24.11;43.66;99536.16;7304713;39;20260;31
2023/10/10 14:23:38;;;;;;;7.83;5.10;;;;;;;24.07;46.16;99517.62;7304499;39;20423;31
2023/10/10 14:29:13;;;;;;;8.63;4.95;;;;;;;24.06;44.55;99525.06;7309945;39;20364;31
2023/10/10 14:34:48;;;;;;;8.80;4.95;;;;;;;24.00;45.53;99523.25;7285154;39;20244;31
2023/10/10 14:40:25;;;;;;;9.02;4.72;;;;;;;23.96;44.98;99518.53;7331404;39;20240;31
2023/10/10 14:46:00;;;;;;;6.82;4.56;;;;;;;23.92;44.80;99518.16;7257195;40;20298;31
2023/10/10 14:51:21;;;;;;;8.00;4.40;;;;;;;23.98;44.58;99524.59;7214669;40;20318;31
2023/10/10 14:56:54;;;;;;;7.58;4.00;;;;;;;23.85;44.57;99522.13;7271568;39;20255;31
2023/10/10 15:02:29;;;;;;;11.54;4.52;;;;;;;23.80;43.41;99520.97;7255651;40;20241;31
2023/10/10 15:08:04;;;;;;;6.93;4.12;;;;;;;23.70;44.40;99520.75;7249441;40;20273;31
2023/10/10 15:13:41;;;;;;;8.14;4.22;;;;;;;23.60;44.54;99519.72;7292437;39;20244;31
2023/10/10 15:19:16;;;;;;;7.43;4.60;;;;;;;23.51;45.26;99511.00;7276108;39;20281;31
2023/10/10 15:24:52;;;;;;;7.23;4.43;;;;;;;23.49;46.02;99517.81;7259738;40;20253;31
2023/10/10 15:30:26;;;;;;;6.80;3.96;;;;;;;23.32;46.10;99513.03;7280912;39;20406;31
2023/10/10 15:36:06;;;;;;;7.42;4.36;;;;;;;23.21;45.91;99508.34;7269334;40;20273;31
2023/10/10 15:41:37;;;;;;;7.07;3.90;;;;;;;23.11;46.76;99519.16;7272322;40;20247;31
2023/10/10 15:47:11;;;;;;;6.45;4.15;;;;;;;23.07;47.23;99514.38;7329500;39;20332;31
2023/10/10 15:52:33;;;;;;;7.36;4.28;;;;;;;23.00;46.83;99517.22;7306605;39;20322;31
2023/10/10 15:58:07;;;;;;;8.76;4.44;;;;;;;22.90;47.06;99514.25;7331607;39;20325;31
2023/10/10 16:03:47;;;;;;;8.40;4.30;;;;;;;22.83;48.56;99513.50;7318991;39;20260;31
2023/10/10 16:09:29;;;;;;;9.10;4.25;;;;;;;22.76;48.17;99518.31;7326940;39;20492;31
2023/10/10 16:14:43;;;;;;;7.98;4.14;;;;;;;22.63;49.51;99530.31;7359833;39;20432;31
2023/10/10 16:20:22;;;;;;;13.47;5.20;;;;;;;22.41;51.29;99532.78;7363589;39;20341;31
2023/10/10 16:25:42;;;;;;;8.20;4.70;;;;;;;22.25;52.28;99533.44;7336360;39;20422;31
2023/10/10 16:31:20;;;;;;;8.10;4.25;;;;;;;21.97;53.18;99525.00;7373645;39;20243;31
2023/10/10 16:36:57;;;;;;;10.87;4.60;;;;;;;21.74;54.03;99530.31;7373112;39;20255;31
2023/10/10 16:42:30;;;;;;;9.94;4.84;;;;;;;21.47;54.89;99530.66;7353579;39;20428;31
2023/10/10 16:47:49;;;;;;;9.63;5.07;;;;;;;21.24;55.01;99522.25;7292714;39;20322;31
2023/10/10 16:53:25;;;;;;;7.20;4.40;;;;;;;21.05;56.05;99526.88;7310060;39;20266;31
2023/10/10 16:58:58;;;;;;;7.10;4.30;;;;;;;20.93;55.86;99522.34;7346089;39;20391;31
2023/10/10 17:04:19;;;;;;;9.00;4.32;;;;;;;20.86;56.09;99527.03;7336986;39;20243;31
2023/10/10 17:09:52;;;;;;;10.27;4.50;;;;;;;20.73;57.73;99527.16;7358937;39;21500;31
2023/10/10 17:15:27;;;;;;;8.85;4.78;;;;;;;20.65;58.17;99526.38;7306535;39;20240;31
2023/10/10 17:21:02;;;;;;;8.05;4.60;;;;;;;20.38;58.58;99519.44;7328695;39;20314;31
2023/10/10 17:26:43;;;;;;;7.25;4.95;;;;;;;20.24;58.59;99524.12;7287823;39;20260;31
2023/10/10 17:32:15;;;;;;;7.30;4.80;;;;;;;20.24;58.55;99531.50;7307081;39;20244;31
2023/10/10 17:37:49;;;;;;;7.93;4.50;;;;;;;20.19;59.06;99525.84;7226493;40;20242;31
2023/10/10 17:43:24;;;;;;;7.30;4.50;;;;;;;20.14;59.38;99525.69;7238647;40;20241;31
2023/10/10 17:49:00;;;;;;;6.78;4.68;;;;;;;19.99;59.71;99530.63;7228914;40;20260;31
2023/10/10 17:54:20;;;;;;;7.00;4.30;;;;;;;19.85;60.39;99529.00;7223736;40;20350;31
2023/10/10 17:59:56;;;;;;;7.28;4.57;;;;;;;19.84;60.06;99527.31;7265511;39;20354;31
2023/10/10 18:05:32;;;;;;;10.77;5.05;;;;;;;19.82;60.11;99527.56;7245747;39;20349;31
2023/10/10 18:11:07;;;;;;;9.65;5.00;;;;;;;19.73;61.22;99523.38;7291345;39;20249;31
2023/10/10 18:16:45;;;;;;;8.40;4.70;;;;;;;19.65;60.12;99529.09;7236448;40;20314;31
2023/10/10 18:22:05;;;;;;;7.37;4.55;;;;;;;19.59;60.37;99536.28;7260800;39;21073;31
2023/10/10 18:27:38;;;;;;;11.32;4.70;;;;;;;19.47;60.68;99521.59;7267435;39;20272;31
2023/10/10 18:33:14;;;;;;;7.50;4.40;;;;;;;19.45;61.24;99529.16;7298861;39;20247;31
2023/10/10 18:38:50;;;;;;;9.40;4.90;;;;;;;19.28;60.75;99527.94;7281739;39;20292;31
2023/10/10 18:44:24;;;;;;;8.73;4.63;;;;;;;19.10;61.84;99533.22;7323332;39;20258;31
2023/10/10 18:50:00;;;;;;;8.67;4.80;;;;;;;18.99;62.13;99536.63;7279044;39;21355;31
2023/10/10 19:00:40;;;;;;;9.10;4.70;;;;;;;18.76;62.40;99534.31;7365524;39;20255;31
2023/10/10 19:11:23;;;;;;;9.27;4.67;;;;;;;18.51;62.81;99522.34;7378011;39;20875;31
2023/10/10 19:22:04;;;;;;;9.70;4.60;;;;;;;18.48;62.05;99518.97;7400117;39;20285;31
2023/10/10 19:27:37;;;;;;;9.00;5.00;;;;;;;18.39;62.56;99527.56;7400565;39;20238;31
2023/10/10 19:33:14;;;;;;;5.77;4.10;;;;;;;18.18;62.76;99520.41;7290369;39;20230;31
2023/10/10 19:38:34;;;;;;;9.03;4.47;;;;;;;18.14;63.04;99523.75;7296632;39;20244;31
2023/10/10 19:44:06;;;;;;;9.60;4.80;;;;;;;17.96;64.10;99527.91;7300824;39;20302;31
2023/10/10 19:49:41;;;;;;;10.30;4.47;;;;;;;17.93;64.05;99528.34;7316262;39;20281;31
2023/10/10 19:55:03;;;;;;;9.10;5.00;;;;;;;17.92;64.18;99528.53;7318219;39;21312;31
2023/10/10 20:00:38;;;;;;;9.30;4.43;;;;;;;17.80;64.31;99531.03;7348666;39;20233;31
2023/10/10 20:06:11;;;;;;;8.93;4.80;;;;;;;17.80;64.86;99532.91;7348949;39;20376;31
2023/10/10 20:11:46;;;;;;;9.53;4.13;;;;;;;17.73;64.06;99534.75;7294085;39;20232;31
2023/10/10 20:17:19;;;;;;;10.23;4.67;;;;;;;17.47;64.92;99525.41;7075759;39;21217;31
2023/10/10 20:22:56;;;;;;;7.40;4.50;;;;;;;17.44;65.02;99531.25;7276927;39;20364;31
2023/10/10 20:28:29;;;;;;;9.85;4.75;;;;;;;17.28;64.85;99526.16;7300959;39;20311;31
2023/10/10 20:34:05;;;;;;;8.30;4.50;;;;;;;17.22;65.11;99523.38;7328732;39;20370;31
2023/10/10 20:39:26;;;;;;;7.90;5.03;;;;;;;17.21;65.35;99528.00;7282504;39;20319;31
2023/10/10 20:45:01;;;;;;;11.00;4.27;;;;;;;17.11;65.86;99517.44;7326829;39;20258;31
2023/10/10 20:50:40;;;;;;;10.63;4.53;;;;;;;17.02;66.01;99515.97;7322655;39;20286;31
2023/10/10 21:01:16;;;;;;;8.70;4.50;;;;;;;16.81;66.46;99505.13;7345347;39;20627;31
2023/10/10 21:06:52;;;;;;;10.05;4.50;;;;;;;16.69;67.29;99501.25;7288266;39;20286;31
2023/10/10 21:17:53;;;;;;;6.77;4.23;;;;;;;16.76;66.76;99502.12;7295944;39;20283;31
2023/10/10 21:23:29;;;;;;;7.20;4.45;;;;;;;16.75;67.49;99495.03;7222279;40;20260;31
2023/10/10 21:29:04;;;;;;;9.50;4.77;;;;;;;16.54;68.10;99497.78;7185289;40;20359;31
2023/10/10 21:34:42;;;;;;;7.97;4.50;;;;;;;16.38;68.60;99492.59;7257845;40;20341;31
2023/10/10 21:40:20;;;;;;;8.10;4.80;;;;;;;16.39;68.36;99478.81;7298016;39;20247;31
2023/10/10 21:45:52;;;;;;;7.05;4.50;;;;;;;16.51;68.56;99473.66;7283195;39;20260;31
2023/10/10 21:51:27;;;;;;;7.57;4.80;;;;;;;16.61;68.15;99483.22;7248265;39;20370;31
2023/10/10 21:57:04;;;;;;;9.40;5.00;;;;;;;16.64;68.06;99484.69;7238184;40;20303;31
2023/10/10 22:02:39;;;;;;;7.80;4.63;;;;;;;16.57;68.37;99486.50;7265490;39;20342;31
2023/10/10 22:08:14;;;;;;;8.80;4.60;;;;;;;16.65;68.22;99481.78;7283168;39;20240;31
2023/10/10 22:13:50;;;;;;;12.57;4.73;;;;;;;16.77;68.15;99476.59;7213415;40;20236;31
2023/10/10 22:19:26;;;;;;;9.23;4.17;;;;;;;16.76;68.06;99471.38;7267215;40;20265;31
2023/10/10 22:25:10;;;;;;;8.55;4.50;;;;;;;16.78;67.92;99469.28;7237983;40;20805;31
2023/10/10 22:30:38;;;;;;;7.30;4.00;;;;;;;16.73;68.88;99458.16;7214905;40;20359;31
2023/10/10 22:36:15;;;;;;;7.75;4.85;;;;;;;16.78;68.54;99461.13;7248938;40;20287;31
2023/10/10 22:41:36;;;;;;;6.73;4.37;;;;;;;16.91;67.27;99455.75;7328011;39;20355;31
2023/10/10 22:47:13;;;;;;;9.07;4.50;;;;;;;16.90;68.34;99457.63;7300892;39;20240;31
2023/10/10 22:52:47;;;;;;;8.13;4.50;;;;;;;16.80;69.26;99446.28;7228802;40;20350;31
2023/10/10 22:58:08;;;;;;;6.70;4.33;;;;;;;16.84;69.11;99455.72;7237512;40;20243;31
2023/10/10 23:03:45;;;;;;;7.50;4.00;;;;;;;16.88;68.94;99451.56;7239471;40;20247;31
2023/10/10 23:09:18;;;;;;;10.47;4.37;;;;;;;16.85;68.49;99446.50;7241860;40;20261;31
2023/10/10 23:14:55;;;;;;;8.70;4.40;;;;;;;16.77;69.53;99443.94;7269305;39;20268;31
2023/10/10 23:20:30;;;;;;;9.70;4.40;;;;;;;16.76;68.49;99446.88;7308562;39;20239;31
2023/10/10 23:26:06;;;;;;;8.50;4.00;;;;;;;16.76;69.03;99441.44;7289286;40;20240;31
2023/10/10 23:31:26;;;;;;;7.65;4.45;;;;;;;16.79;68.71;99447.31;7256109;40;20391;31
2023/10/10 23:37:00;;;;;;;12.73;4.67;;;;;;;16.73;68.92;99447.25;7289731;39;20252;31
2023/10/10 23:42:20;;;;;;;7.53;3.97;;;;;;;16.62;68.38;99449.53;7248495;40;20256;31
2023/10/10 23:47:55;;;;;;;9.53;4.30;;;;;;;16.51;69.53;99441.00;7273376;40;20368;31
2023/10/10 23:53:36;;;;;;;6.20;4.05;;;;;;;16.46;68.92;99444.31;7285403;40;20236;31
2023/10/10 23:58:53;;;;;;;7.73;4.57;;;;;;;16.53;68.61;99437.06;7263042;40;20249;31
